sensor_id;sensor_type;location;lat;lon;timestamp;temperature;humidity
65584;DHT22;73032;43.592;1.458;2023-11-19T00:00:07;12.12;81.04
65584;DHT22;73032;43.592;1.458;2023-11-19T00:02:40;12.08;81.16
65584;DHT22;73032;43.592;1.458;2023-11-19T00:05:08;12.06;81.14
65584;DHT22;73032;43.592;1.458;2023-11-19T00:07:40;12.02;81.07
65584;DHT22;73032;43.592;1.458;2023-11-19T00:10:13;11.98;81.17
65584;DHT22;73032;43.592;1.458;2023-11-19T00:12:41;11.96;81.27
65584;DHT22;73032;43.592;1.458;2023-11-19T00:15:09;11.99;81.28
65584;DHT22;73032;43.592;1.458;2023-11-19T00:17:39;11.99;81.17
65584;DHT22;73032;43.592;1.458;2023-11-19T00:20:18;11.98;81.13
65584;DHT22;73032;43.592;1.458;2023-11-19T00:22:46;11.99;81.11
65584;DHT22;73032;43.592;1.458;2023-11-19T00:25:20;11.99;80.88
65584;DHT22;73032;43.592;1.458;2023-11-19T00:27:48;11.99;80.78
65584;DHT22;73032;43.592;1.458;2023-11-19T00:30:15;11.98;80.88
65584;DHT22;73032;43.592;1.458;2023-11-19T00:32:42;11.99;81.01
65584;DHT22;73032;43.592;1.458;2023-11-19T00:35:09;11.96;81.22
65584;DHT22;73032;43.592;1.458;2023-11-19T00:37:41;11.98;81.24
65584;DHT22;73032;43.592;1.458;2023-11-19T00:40:09;11.96;81.01
65584;DHT22;73032;43.592;1.458;2023-11-19T00:42:37;11.95;81.22
65584;DHT22;73032;43.592;1.458;2023-11-19T00:45:05;11.94;81.21
65584;DHT22;73032;43.592;1.458;2023-11-19T00:47:36;11.92;81.27
65584;DHT22;73032;43.592;1.458;2023-11-19T00:50:03;11.92;81.36
65584;DHT22;73032;43.592;1.458;2023-11-19T00:52:30;11.91;81.25
65584;DHT22;73032;43.592;1.458;2023-11-19T00:54:56;11.91;81.37
65584;DHT22;73032;43.592;1.458;2023-11-19T00:57:23;11.86;81.33
65584;DHT22;73032;43.592;1.458;2023-11-19T00:59:50;11.84;81.48
65584;DHT22;73032;43.592;1.458;2023-11-19T01:02:17;11.86;81.31
65584;DHT22;73032;43.592;1.458;2023-11-19T01:04:44;11.86;81.04
65584;DHT22;73032;43.592;1.458;2023-11-19T01:07:10;11.86;81.08
65584;DHT22;73032;43.592;1.458;2023-11-19T01:09:41;11.84;81.01
65584;DHT22;73032;43.592;1.458;2023-11-19T01:12:08;11.84;80.71
65584;DHT22;73032;43.592;1.458;2023-11-19T01:14:38;11.79;81.07
65584;DHT22;73032;43.592;1.458;2023-11-19T01:17:04;11.77;81.01
65584;DHT22;73032;43.592;1.458;2023-11-19T01:19:31;11.75;80.74
65584;DHT22;73032;43.592;1.458;2023-11-19T01:21:58;11.72;80.79
65584;DHT22;73032;43.592;1.458;2023-11-19T01:24:25;11.71;80.94
65584;DHT22;73032;43.592;1.458;2023-11-19T01:26:55;11.67;81.25
65584;DHT22;73032;43.592;1.458;2023-11-19T01:29:21;11.64;81.40
65584;DHT22;73032;43.592;1.458;2023-11-19T01:31:48;11.57;81.46
65584;DHT22;73032;43.592;1.458;2023-11-19T01:34:15;11.58;81.58
65584;DHT22;73032;43.592;1.458;2023-11-19T01:36:41;11.55;81.74
65584;DHT22;73032;43.592;1.458;2023-11-19T01:39:08;11.52;81.74
65584;DHT22;73032;43.592;1.458;2023-11-19T01:41:35;11.52;81.82
65584;DHT22;73032;43.592;1.458;2023-11-19T01:44:03;11.48;81.83
65584;DHT22;73032;43.592;1.458;2023-11-19T01:46:32;11.47;81.90
65584;DHT22;73032;43.592;1.458;2023-11-19T01:49:00;11.42;81.76
65584;DHT22;73032;43.592;1.458;2023-11-19T01:51:27;11.40;81.85
65584;DHT22;73032;43.592;1.458;2023-11-19T01:53:55;11.37;81.94
65584;DHT22;73032;43.592;1.458;2023-11-19T01:56:24;11.37;81.97
65584;DHT22;73032;43.592;1.458;2023-11-19T01:58:54;11.34;82.01
65584;DHT22;73032;43.592;1.458;2023-11-19T02:01:21;11.30;81.94
65584;DHT22;73032;43.592;1.458;2023-11-19T02:03:48;11.26;81.74
65584;DHT22;73032;43.592;1.458;2023-11-19T02:06:15;11.20;81.80
65584;DHT22;73032;43.592;1.458;2023-11-19T02:08:42;11.16;81.89
65584;DHT22;73032;43.592;1.458;2023-11-19T02:11:10;11.10;81.89
65584;DHT22;73032;43.592;1.458;2023-11-19T02:13:38;11.09;81.94
65584;DHT22;73032;43.592;1.458;2023-11-19T02:16:08;11.07;81.96
65584;DHT22;73032;43.592;1.458;2023-11-19T02:18:37;11.03;82.02
65584;DHT22;73032;43.592;1.458;2023-11-19T02:21:04;11.01;82.12
65584;DHT22;73032;43.592;1.458;2023-11-19T02:23:32;10.96;82.22
65584;DHT22;73032;43.592;1.458;2023-11-19T02:28:44;10.90;82.25
65584;DHT22;73032;43.592;1.458;2023-11-19T02:31:10;10.86;82.31
65584;DHT22;73032;43.592;1.458;2023-11-19T02:33:38;10.86;82.47
65584;DHT22;73032;43.592;1.458;2023-11-19T02:36:06;10.84;82.52
65584;DHT22;73032;43.592;1.458;2023-11-19T02:38:34;10.87;82.54
65584;DHT22;73032;43.592;1.458;2023-11-19T02:41:05;10.87;82.47
65584;DHT22;73032;43.592;1.458;2023-11-19T02:43:37;10.90;82.43
65584;DHT22;73032;43.592;1.458;2023-11-19T02:46:04;10.90;82.49
65584;DHT22;73032;43.592;1.458;2023-11-19T02:48:36;10.93;82.47
65584;DHT22;73032;43.592;1.458;2023-11-19T02:51:04;10.93;82.47
65584;DHT22;73032;43.592;1.458;2023-11-19T02:53:31;10.90;82.47
65584;DHT22;73032;43.592;1.458;2023-11-19T02:55:58;10.89;82.55
65584;DHT22;73032;43.592;1.458;2023-11-19T02:58:31;10.87;82.48
65584;DHT22;73032;43.592;1.458;2023-11-19T03:00:58;10.86;82.46
65584;DHT22;73032;43.592;1.458;2023-11-19T03:03:27;10.87;82.51
65584;DHT22;73032;43.592;1.458;2023-11-19T03:06:05;10.84;82.53
65584;DHT22;73032;43.592;1.458;2023-11-19T03:08:34;10.84;82.52
65584;DHT22;73032;43.592;1.458;2023-11-19T03:11:01;10.79;82.54
65584;DHT22;73032;43.592;1.458;2023-11-19T03:13:28;10.79;82.62
65584;DHT22;73032;43.592;1.458;2023-11-19T03:15:55;10.77;82.76
65584;DHT22;73032;43.592;1.458;2023-11-19T03:18:22;10.77;82.73
65584;DHT22;73032;43.592;1.458;2023-11-19T03:20:48;10.77;82.74
65584;DHT22;73032;43.592;1.458;2023-11-19T03:23:16;10.77;82.81
65584;DHT22;73032;43.592;1.458;2023-11-19T03:25:42;10.77;82.76
65584;DHT22;73032;43.592;1.458;2023-11-19T03:28:10;10.76;82.80
65584;DHT22;73032;43.592;1.458;2023-11-19T03:30:37;10.76;82.85
65584;DHT22;73032;43.592;1.458;2023-11-19T03:33:04;10.76;82.91
65584;DHT22;73032;43.592;1.458;2023-11-19T03:35:31;10.77;82.90
65584;DHT22;73032;43.592;1.458;2023-11-19T03:37:59;10.81;82.82
65584;DHT22;73032;43.592;1.458;2023-11-19T03:40:28;10.81;82.83
65584;DHT22;73032;43.592;1.458;2023-11-19T03:42:58;10.86;82.43
65584;DHT22;73032;43.592;1.458;2023-11-19T03:45:25;10.84;82.41
65584;DHT22;73032;43.592;1.458;2023-11-19T03:47:52;10.89;82.62
65584;DHT22;73032;43.592;1.458;2023-11-19T03:50:18;10.87;82.69
65584;DHT22;73032;43.592;1.458;2023-11-19T03:52:47;10.87;82.74
65584;DHT22;73032;43.592;1.458;2023-11-19T03:55:14;10.87;82.78
65584;DHT22;73032;43.592;1.458;2023-11-19T03:57:41;10.86;82.90
65584;DHT22;73032;43.592;1.458;2023-11-19T04:00:08;10.83;82.93
65584;DHT22;73032;43.592;1.458;2023-11-19T04:02:41;10.83;82.93
65584;DHT22;73032;43.592;1.458;2023-11-19T04:05:08;10.77;83.02
65584;DHT22;73032;43.592;1.458;2023-11-19T04:07:36;10.79;83.05
65584;DHT22;73032;43.592;1.458;2023-11-19T04:10:04;10.76;83.07
65584;DHT22;73032;43.592;1.458;2023-11-19T04:12:30;10.75;82.93
65584;DHT22;73032;43.592;1.458;2023-11-19T04:14:57;10.75;82.94
65584;DHT22;73032;43.592;1.458;2023-11-19T04:17:27;10.70;83.07
65584;DHT22;73032;43.592;1.458;2023-11-19T04:19:54;10.69;83.11
65584;DHT22;73032;43.592;1.458;2023-11-19T04:22:22;10.63;82.96
65584;DHT22;73032;43.592;1.458;2023-11-19T04:24:49;10.56;82.65
65584;DHT22;73032;43.592;1.458;2023-11-19T04:27:15;10.48;82.30
65584;DHT22;73032;43.592;1.458;2023-11-19T04:29:42;10.45;82.01
65584;DHT22;73032;43.592;1.458;2023-11-19T04:32:09;10.39;82.36
65584;DHT22;73032;43.592;1.458;2023-11-19T04:34:35;10.35;82.34
65584;DHT22;73032;43.592;1.458;2023-11-19T04:37:04;10.32;82.57
65584;DHT22;73032;43.592;1.458;2023-11-19T04:39:33;10.32;82.48
65584;DHT22;73032;43.592;1.458;2023-11-19T04:42:00;10.25;82.30
65584;DHT22;73032;43.592;1.458;2023-11-19T04:44:27;10.24;82.50
65584;DHT22;73032;43.592;1.458;2023-11-19T04:46:56;10.14;82.61
65584;DHT22;73032;43.592;1.458;2023-11-19T04:49:22;10.11;82.76
65584;DHT22;73032;43.592;1.458;2023-11-19T04:51:49;10.04;82.69
65584;DHT22;73032;43.592;1.458;2023-11-19T04:54:17;10.02;82.58
65584;DHT22;73032;43.592;1.458;2023-11-19T04:56:45;10.01;82.78
65584;DHT22;73032;43.592;1.458;2023-11-19T04:59:13;9.95;82.76
65584;DHT22;73032;43.592;1.458;2023-11-19T05:01:40;9.92;82.15
65584;DHT22;73032;43.592;1.458;2023-11-19T05:04:07;9.85;82.59
65584;DHT22;73032;43.592;1.458;2023-11-19T05:06:34;9.81;83.19
65584;DHT22;73032;43.592;1.458;2023-11-19T05:09:02;9.81;83.43
65584;DHT22;73032;43.592;1.458;2023-11-19T05:11:33;9.81;83.49
65584;DHT22;73032;43.592;1.458;2023-11-19T05:14:02;9.84;83.31
65584;DHT22;73032;43.592;1.458;2023-11-19T05:16:31;9.88;83.12
65584;DHT22;73032;43.592;1.458;2023-11-19T05:18:58;9.88;82.97
65584;DHT22;73032;43.592;1.458;2023-11-19T05:21:24;9.91;83.06
65584;DHT22;73032;43.592;1.458;2023-11-19T05:23:51;9.91;83.33
65584;DHT22;73032;43.592;1.458;2023-11-19T05:26:22;9.88;83.34
65584;DHT22;73032;43.592;1.458;2023-11-19T05:28:49;9.88;83.29
65584;DHT22;73032;43.592;1.458;2023-11-19T05:31:17;9.90;83.39
65584;DHT22;73032;43.592;1.458;2023-11-19T05:33:44;9.91;83.25
65584;DHT22;73032;43.592;1.458;2023-11-19T05:36:12;9.88;83.27
65584;DHT22;73032;43.592;1.458;2023-11-19T05:38:41;9.87;83.48
65584;DHT22;73032;43.592;1.458;2023-11-19T05:41:08;9.85;83.45
65584;DHT22;73032;43.592;1.458;2023-11-19T05:43:34;9.87;83.25
65584;DHT22;73032;43.592;1.458;2023-11-19T05:46:02;9.84;83.30
65584;DHT22;73032;43.592;1.458;2023-11-19T05:48:29;9.82;83.28
65584;DHT22;73032;43.592;1.458;2023-11-19T05:50:55;9.78;83.36
65584;DHT22;73032;43.592;1.458;2023-11-19T05:53:22;9.80;83.45
65584;DHT22;73032;43.592;1.458;2023-11-19T05:55:49;9.80;82.76
65584;DHT22;73032;43.592;1.458;2023-11-19T05:58:25;9.78;83.02
65584;DHT22;73032;43.592;1.458;2023-11-19T06:00:52;9.81;83.12
65584;DHT22;73032;43.592;1.458;2023-11-19T06:03:19;9.75;82.77
65584;DHT22;73032;43.592;1.458;2023-11-19T06:05:48;9.73;83.34
65584;DHT22;73032;43.592;1.458;2023-11-19T06:08:16;9.74;83.33
65584;DHT22;73032;43.592;1.458;2023-11-19T06:10:44;9.70;83.50
65584;DHT22;73032;43.592;1.458;2023-11-19T06:13:13;9.73;83.39
65584;DHT22;73032;43.592;1.458;2023-11-19T06:15:42;9.71;83.50
65584;DHT22;73032;43.592;1.458;2023-11-19T06:18:09;9.67;83.56
65584;DHT22;73032;43.592;1.458;2023-11-19T06:20:38;9.68;83.75
65584;DHT22;73032;43.592;1.458;2023-11-19T06:23:08;9.67;83.49
65584;DHT22;73032;43.592;1.458;2023-11-19T06:25:35;9.67;83.57
65584;DHT22;73032;43.592;1.458;2023-11-19T06:28:02;9.68;83.59
65584;DHT22;73032;43.592;1.458;2023-11-19T06:30:30;9.70;83.56
65584;DHT22;73032;43.592;1.458;2023-11-19T06:32:59;9.73;83.58
65584;DHT22;73032;43.592;1.458;2023-11-19T06:35:26;9.71;83.66
65584;DHT22;73032;43.592;1.458;2023-11-19T06:37:53;9.71;83.85
65584;DHT22;73032;43.592;1.458;2023-11-19T06:40:21;9.71;83.73
65584;DHT22;73032;43.592;1.458;2023-11-19T06:42:48;9.71;83.74
65584;DHT22;73032;43.592;1.458;2023-11-19T06:45:14;9.70;83.82
65584;DHT22;73032;43.592;1.458;2023-11-19T06:47:41;9.74;83.93
65584;DHT22;73032;43.592;1.458;2023-11-19T06:50:08;9.74;83.86
65584;DHT22;73032;43.592;1.458;2023-11-19T06:52:35;9.73;83.79
65584;DHT22;73032;43.592;1.458;2023-11-19T06:55:04;9.71;83.92
65584;DHT22;73032;43.592;1.458;2023-11-19T06:57:35;9.74;83.86
65584;DHT22;73032;43.592;1.458;2023-11-19T07:00:01;9.75;83.96
65584;DHT22;73032;43.592;1.458;2023-11-19T07:02:29;9.73;83.91
65584;DHT22;73032;43.592;1.458;2023-11-19T07:04:56;9.73;83.94
65584;DHT22;73032;43.592;1.458;2023-11-19T07:07:23;9.77;83.78
65584;DHT22;73032;43.592;1.458;2023-11-19T07:09:50;9.74;83.88
65584;DHT22;73032;43.592;1.458;2023-11-19T07:12:16;9.75;83.91
65584;DHT22;73032;43.592;1.458;2023-11-19T07:14:43;9.77;83.95
65584;DHT22;73032;43.592;1.458;2023-11-19T07:17:10;9.77;83.78
65584;DHT22;73032;43.592;1.458;2023-11-19T07:19:37;9.80;83.78
65584;DHT22;73032;43.592;1.458;2023-11-19T07:22:05;9.82;83.85
65584;DHT22;73032;43.592;1.458;2023-11-19T07:24:33;9.85;83.90
65584;DHT22;73032;43.592;1.458;2023-11-19T07:26:59;9.92;83.71
65584;DHT22;73032;43.592;1.458;2023-11-19T07:29:27;10.14;83.53
65584;DHT22;73032;43.592;1.458;2023-11-19T07:31:55;10.38;82.99
65584;DHT22;73032;43.592;1.458;2023-11-19T07:34:24;10.62;82.34
65584;DHT22;73032;43.592;1.458;2023-11-19T07:36:51;10.87;81.64
65584;DHT22;73032;43.592;1.458;2023-11-19T07:39:19;11.17;80.84
65584;DHT22;73032;43.592;1.458;2023-11-19T07:41:47;11.48;80.49
65584;DHT22;73032;43.592;1.458;2023-11-19T07:44:14;11.85;78.81
65584;DHT22;73032;43.592;1.458;2023-11-19T07:46:40;12.15;78.02
65584;DHT22;73032;43.592;1.458;2023-11-19T07:49:08;12.48;77.36
65584;DHT22;73032;43.592;1.458;2023-11-19T07:51:36;12.80;76.73
65584;DHT22;73032;43.592;1.458;2023-11-19T07:54:03;13.13;75.73
65584;DHT22;73032;43.592;1.458;2023-11-19T07:56:32;13.48;76.46
65584;DHT22;73032;43.592;1.458;2023-11-19T07:59:02;13.79;76.02
65584;DHT22;73032;43.592;1.458;2023-11-19T08:01:28;14.12;74.28
65584;DHT22;73032;43.592;1.458;2023-11-19T08:03:55;14.43;74.22
65584;DHT22;73032;43.592;1.458;2023-11-19T08:06:25;14.74;73.49
65584;DHT22;73032;43.592;1.458;2023-11-19T08:08:52;15.03;71.84
65584;DHT22;73032;43.592;1.458;2023-11-19T08:11:19;15.30;70.60
65584;DHT22;73032;43.592;1.458;2023-11-19T08:13:46;15.59;71.59
65584;DHT22;73032;43.592;1.458;2023-11-19T08:16:14;15.88;70.46
65584;DHT22;73032;43.592;1.458;2023-11-19T08:18:44;16.17;68.94
65584;DHT22;73032;43.592;1.458;2023-11-19T08:21:11;16.30;66.51
65584;DHT22;73032;43.592;1.458;2023-11-19T08:23:37;16.49;66.89
65584;DHT22;73032;43.592;1.458;2023-11-19T08:26:05;16.64;67.79
65584;DHT22;73032;43.592;1.458;2023-11-19T08:28:32;16.91;66.59
65584;DHT22;73032;43.592;1.458;2023-11-19T08:31:01;17.11;63.97
65584;DHT22;73032;43.592;1.458;2023-11-19T08:33:30;17.28;64.62
65584;DHT22;73032;43.592;1.458;2023-11-19T08:35:57;17.41;62.93
65584;DHT22;73032;43.592;1.458;2023-11-19T08:38:25;17.34;63.53
65584;DHT22;73032;43.592;1.458;2023-11-19T08:40:57;17.53;65.21
65584;DHT22;73032;43.592;1.458;2023-11-19T08:43:27;17.79;64.05
65584;DHT22;73032;43.592;1.458;2023-11-19T08:45:53;18.02;63.91
65584;DHT22;73032;43.592;1.458;2023-11-19T08:48:20;18.27;62.67
65584;DHT22;73032;43.592;1.458;2023-11-19T08:50:47;18.33;61.40
65584;DHT22;73032;43.592;1.458;2023-11-19T08:53:14;18.46;61.07
65584;DHT22;73032;43.592;1.458;2023-11-19T08:55:41;18.50;61.64
65584;DHT22;73032;43.592;1.458;2023-11-19T08:58:08;18.49;57.70
65584;DHT22;73032;43.592;1.458;2023-11-19T09:00:35;18.46;60.54
65584;DHT22;73032;43.592;1.458;2023-11-19T09:03:02;18.60;58.36
65584;DHT22;73032;43.592;1.458;2023-11-19T09:05:29;18.61;59.71
65584;DHT22;73032;43.592;1.458;2023-11-19T09:07:55;18.81;61.07
65584;DHT22;73032;43.592;1.458;2023-11-19T09:10:22;19.02;55.66
65584;DHT22;73032;43.592;1.458;2023-11-19T09:12:49;19.16;60.35
65584;DHT22;73032;43.592;1.458;2023-11-19T09:15:15;19.35;56.36
65584;DHT22;73032;43.592;1.458;2023-11-19T09:17:43;19.55;58.00
65584;DHT22;73032;43.592;1.458;2023-11-19T09:20:10;19.54;58.55
65584;DHT22;73032;43.592;1.458;2023-11-19T09:22:39;19.61;58.86
65584;DHT22;73032;43.592;1.458;2023-11-19T09:25:06;19.86;57.44
65584;DHT22;73032;43.592;1.458;2023-11-19T09:27:33;20.12;57.38
65584;DHT22;73032;43.592;1.458;2023-11-19T09:30:00;20.10;56.22
65584;DHT22;73032;43.592;1.458;2023-11-19T09:32:26;20.19;56.69
65584;DHT22;73032;43.592;1.458;2023-11-19T09:34:53;20.14;56.30
65584;DHT22;73032;43.592;1.458;2023-11-19T09:37:20;20.23;57.87
65584;DHT22;73032;43.592;1.458;2023-11-19T09:39:47;20.37;57.39
65584;DHT22;73032;43.592;1.458;2023-11-19T09:42:14;20.29;56.54
65584;DHT22;73032;43.592;1.458;2023-11-19T09:44:42;20.34;56.01
65584;DHT22;73032;43.592;1.458;2023-11-19T09:47:14;20.33;56.25
65584;DHT22;73032;43.592;1.458;2023-11-19T09:49:41;20.34;56.56
65584;DHT22;73032;43.592;1.458;2023-11-19T09:52:08;20.37;56.74
65584;DHT22;73032;43.592;1.458;2023-11-19T09:54:34;20.45;56.49
65584;DHT22;73032;43.592;1.458;2023-11-19T09:57:02;20.70;54.23
65584;DHT22;73032;43.592;1.458;2023-11-19T09:59:33;20.75;55.58
65584;DHT22;73032;43.592;1.458;2023-11-19T10:01:59;20.65;55.82
65584;DHT22;73032;43.592;1.458;2023-11-19T10:04:29;20.51;56.57
65584;DHT22;73032;43.592;1.458;2023-11-19T10:06:57;20.53;56.37
65584;DHT22;73032;43.592;1.458;2023-11-19T10:09:24;20.55;55.72
65584;DHT22;73032;43.592;1.458;2023-11-19T10:11:50;20.67;56.15
65584;DHT22;73032;43.592;1.458;2023-11-19T10:14:23;20.73;54.95
65584;DHT22;73032;43.592;1.458;2023-11-19T10:16:50;20.67;55.03
65584;DHT22;73032;43.592;1.458;2023-11-19T10:19:20;20.61;56.24
65584;DHT22;73032;43.592;1.458;2023-11-19T10:21:47;20.63;56.56
65584;DHT22;73032;43.592;1.458;2023-11-19T10:24:14;20.63;56.50
65584;DHT22;73032;43.592;1.458;2023-11-19T10:26:56;20.51;56.77
65584;DHT22;73032;43.592;1.458;2023-11-19T10:29:24;20.33;57.24
65584;DHT22;73032;43.592;1.458;2023-11-19T10:31:57;20.07;57.18
65584;DHT22;73032;43.592;1.458;2023-11-19T10:34:45;19.97;56.41
65584;DHT22;73032;43.592;1.458;2023-11-19T10:37:28;20.05;57.46
65584;DHT22;73032;43.592;1.458;2023-11-19T10:39:56;20.29;57.60
65584;DHT22;73032;43.592;1.458;2023-11-19T10:42:24;20.57;57.64
65584;DHT22;73032;43.592;1.458;2023-11-19T10:44:50;20.85;57.56
65584;DHT22;73032;43.592;1.458;2023-11-19T10:47:22;21.22;57.41
65584;DHT22;73032;43.592;1.458;2023-11-19T10:49:52;21.45;55.68
65584;DHT22;73032;43.592;1.458;2023-11-19T10:52:18;21.69;54.40
65584;DHT22;73032;43.592;1.458;2023-11-19T10:54:49;21.97;54.74
65584;DHT22;73032;43.592;1.458;2023-11-19T10:57:21;22.25;55.31
65584;DHT22;73032;43.592;1.458;2023-11-19T10:59:52;22.40;54.38
65584;DHT22;73032;43.592;1.458;2023-11-19T11:02:24;22.41;54.16
65584;DHT22;73032;43.592;1.458;2023-11-19T11:04:52;22.50;51.78
65584;DHT22;73032;43.592;1.458;2023-11-19T11:07:21;22.57;52.70
65584;DHT22;73032;43.592;1.458;2023-11-19T11:10:02;22.69;52.59
65584;DHT22;73032;43.592;1.458;2023-11-19T11:12:32;22.81;52.92
65584;DHT22;73032;43.592;1.458;2023-11-19T11:15:03;22.97;52.31
65584;DHT22;73032;43.592;1.458;2023-11-19T11:17:32;23.14;52.49
65584;DHT22;73032;43.592;1.458;2023-11-19T11:20:00;23.33;51.55
65584;DHT22;73032;43.592;1.458;2023-11-19T11:22:28;23.48;52.12
65584;DHT22;73032;43.592;1.458;2023-11-19T11:28:05;23.72;50.73
65584;DHT22;73032;43.592;1.458;2023-11-19T11:30:49;23.83;50.69
65584;DHT22;73032;43.592;1.458;2023-11-19T11:36:19;24.06;51.33
65584;DHT22;73032;43.592;1.458;2023-11-19T11:38:49;24.21;48.97
65584;DHT22;73032;43.592;1.458;2023-11-19T11:41:21;24.31;48.97
65584;DHT22;73032;43.592;1.458;2023-11-19T11:43:54;24.30;48.64
65584;DHT22;73032;43.592;1.458;2023-11-19T11:49:07;24.56;48.88
65584;DHT22;73032;43.592;1.458;2023-11-19T11:54:26;24.84;47.82
65584;DHT22;73032;43.592;1.458;2023-11-19T11:57:12;24.74;45.89
65584;DHT22;73032;43.592;1.458;2023-11-19T11:59:49;24.88;47.13
65584;DHT22;73032;43.592;1.458;2023-11-19T12:02:20;24.92;46.16
65584;DHT22;73032;43.592;1.458;2023-11-19T12:04:49;24.94;46.52
65584;DHT22;73032;43.592;1.458;2023-11-19T12:07:20;25.11;46.73
65584;DHT22;73032;43.592;1.458;2023-11-19T12:09:52;25.22;47.29
65584;DHT22;73032;43.592;1.458;2023-11-19T12:12:27;25.41;44.71
65584;DHT22;73032;43.592;1.458;2023-11-19T12:20:07;25.36;45.01
65584;DHT22;73032;43.592;1.458;2023-11-19T12:22:38;25.52;45.19
65584;DHT22;73032;43.592;1.458;2023-11-19T12:25:07;25.49;44.81
65584;DHT22;73032;43.592;1.458;2023-11-19T12:27:46;25.61;45.96
65584;DHT22;73032;43.592;1.458;2023-11-19T12:30:17;25.50;44.76
65584;DHT22;73032;43.592;1.458;2023-11-19T12:32:45;25.52;44.31
65584;DHT22;73032;43.592;1.458;2023-11-19T12:35:12;25.32;45.52
65584;DHT22;73032;43.592;1.458;2023-11-19T12:40:16;25.25;43.75
65584;DHT22;73032;43.592;1.458;2023-11-19T12:42:47;25.31;43.69
65584;DHT22;73032;43.592;1.458;2023-11-19T12:45:14;25.46;41.63
65584;DHT22;73032;43.592;1.458;2023-11-19T12:47:43;25.49;41.65
65584;DHT22;73032;43.592;1.458;2023-11-19T12:50:10;25.53;42.71
65584;DHT22;73032;43.592;1.458;2023-11-19T12:52:37;25.53;44.36
65584;DHT22;73032;43.592;1.458;2023-11-19T12:55:05;25.55;42.14
65584;DHT22;73032;43.592;1.458;2023-11-19T12:57:41;25.41;43.71
65584;DHT22;73032;43.592;1.458;2023-11-19T13:00:19;25.31;44.74
65584;DHT22;73032;43.592;1.458;2023-11-19T13:02:49;25.33;43.76
65584;DHT22;73032;43.592;1.458;2023-11-19T13:05:32;25.25;44.41
65584;DHT22;73032;43.592;1.458;2023-11-19T13:08:09;25.42;44.44
65584;DHT22;73032;43.592;1.458;2023-11-19T13:13:14;25.55;43.86
65584;DHT22;73032;43.592;1.458;2023-11-19T13:15:41;25.52;43.34
65584;DHT22;73032;43.592;1.458;2023-11-19T13:18:08;25.28;42.83
65584;DHT22;73032;43.592;1.458;2023-11-19T13:20:34;25.14;44.66
65584;DHT22;73032;43.592;1.458;2023-11-19T13:23:03;24.98;45.08
65584;DHT22;73032;43.592;1.458;2023-11-19T13:25:30;24.91;45.26
65584;DHT22;73032;43.592;1.458;2023-11-19T13:27:58;24.84;44.74
65584;DHT22;73032;43.592;1.458;2023-11-19T13:30:25;24.63;43.19
65584;DHT22;73032;43.592;1.458;2023-11-19T13:32:53;24.34;45.91
65584;DHT22;73032;43.592;1.458;2023-11-19T13:35:22;24.28;45.03
65584;DHT22;73032;43.592;1.458;2023-11-19T13:37:49;24.20;45.12
65584;DHT22;73032;43.592;1.458;2023-11-19T13:40:16;24.21;45.23
65584;DHT22;73032;43.592;1.458;2023-11-19T13:42:46;24.14;44.30
65584;DHT22;73032;43.592;1.458;2023-11-19T13:45:16;24.18;45.35
65584;DHT22;73032;43.592;1.458;2023-11-19T13:47:45;24.24;45.96
65584;DHT22;73032;43.592;1.458;2023-11-19T13:50:14;24.26;46.28
65584;DHT22;73032;43.592;1.458;2023-11-19T13:52:42;24.23;47.04
65584;DHT22;73032;43.592;1.458;2023-11-19T13:55:09;24.16;46.29
65584;DHT22;73032;43.592;1.458;2023-11-19T13:57:38;24.12;47.39
65584;DHT22;73032;43.592;1.458;2023-11-19T14:00:07;24.09;47.43
65584;DHT22;73032;43.592;1.458;2023-11-19T14:02:40;24.16;47.43
65584;DHT22;73032;43.592;1.458;2023-11-19T14:05:10;24.26;47.26
65584;DHT22;73032;43.592;1.458;2023-11-19T14:07:38;24.36;46.75
65584;DHT22;73032;43.592;1.458;2023-11-19T14:10:05;24.43;46.81
65584;DHT22;73032;43.592;1.458;2023-11-19T14:12:33;24.31;46.67
65584;DHT22;73032;43.592;1.458;2023-11-19T14:14:59;24.38;45.70
65584;DHT22;73032;43.592;1.458;2023-11-19T14:17:26;24.43;46.92
65584;DHT22;73032;43.592;1.458;2023-11-19T14:19:53;24.47;47.49
65584;DHT22;73032;43.592;1.458;2023-11-19T14:22:20;24.37;46.35
65584;DHT22;73032;43.592;1.458;2023-11-19T14:24:46;24.56;46.40
65584;DHT22;73032;43.592;1.458;2023-11-19T14:27:13;24.65;46.45
65584;DHT22;73032;43.592;1.458;2023-11-19T14:29:40;24.77;44.79
65584;DHT22;73032;43.592;1.458;2023-11-19T14:32:06;24.84;45.82
65584;DHT22;73032;43.592;1.458;2023-11-19T14:34:33;24.89;46.77
65584;DHT22;73032;43.592;1.458;2023-11-19T14:37:00;24.99;45.54
65584;DHT22;73032;43.592;1.458;2023-11-19T14:39:27;24.79;44.16
65584;DHT22;73032;43.592;1.458;2023-11-19T14:41:55;24.92;45.81
65584;DHT22;73032;43.592;1.458;2023-11-19T14:44:25;24.98;45.59
65584;DHT22;73032;43.592;1.458;2023-11-19T14:46:51;24.89;46.13
65584;DHT22;73032;43.592;1.458;2023-11-19T14:49:18;24.88;45.77
65584;DHT22;73032;43.592;1.458;2023-11-19T14:51:45;24.94;44.77
65584;DHT22;73032;43.592;1.458;2023-11-19T14:54:14;24.98;45.73
65584;DHT22;73032;43.592;1.458;2023-11-19T14:56:42;25.09;45.01
65584;DHT22;73032;43.592;1.458;2023-11-19T14:59:09;24.85;45.59
65584;DHT22;73032;43.592;1.458;2023-11-19T15:01:36;24.53;46.31
65584;DHT22;73032;43.592;1.458;2023-11-19T15:04:03;24.30;46.50
65584;DHT22;73032;43.592;1.458;2023-11-19T15:06:32;24.26;47.22
65584;DHT22;73032;43.592;1.458;2023-11-19T15:09:00;24.38;47.28
65584;DHT22;73032;43.592;1.458;2023-11-19T15:11:27;24.46;47.13
65584;DHT22;73032;43.592;1.458;2023-11-19T15:13:53;24.51;47.59
65584;DHT22;73032;43.592;1.458;2023-11-19T15:16:20;24.56;45.86
65584;DHT22;73032;43.592;1.458;2023-11-19T15:18:52;24.56;46.46
65584;DHT22;73032;43.592;1.458;2023-11-19T15:21:20;24.50;48.02
65584;DHT22;73032;43.592;1.458;2023-11-19T15:23:47;24.46;47.83
65584;DHT22;73032;43.592;1.458;2023-11-19T15:26:15;24.34;46.80
65584;DHT22;73032;43.592;1.458;2023-11-19T15:28:42;24.14;47.72
65584;DHT22;73032;43.592;1.458;2023-11-19T15:31:09;23.94;47.83
65584;DHT22;73032;43.592;1.458;2023-11-19T15:33:36;23.63;47.45
65584;DHT22;73032;43.592;1.458;2023-11-19T15:36:03;23.29;49.17
65584;DHT22;73032;43.592;1.458;2023-11-19T15:38:34;22.99;49.63
65584;DHT22;73032;43.592;1.458;2023-11-19T15:41:18;22.67;50.82
65584;DHT22;73032;43.592;1.458;2023-11-19T15:43:45;22.36;51.39
65584;DHT22;73032;43.592;1.458;2023-11-19T15:46:12;22.07;52.45
65584;DHT22;73032;43.592;1.458;2023-11-19T15:48:39;21.82;53.07
65584;DHT22;73032;43.592;1.458;2023-11-19T15:51:06;21.59;53.09
65584;DHT22;73032;43.592;1.458;2023-11-19T15:53:32;21.45;53.93
65584;DHT22;73032;43.592;1.458;2023-11-19T15:55:59;21.31;54.64
65584;DHT22;73032;43.592;1.458;2023-11-19T15:58:26;21.18;54.80
65584;DHT22;73032;43.592;1.458;2023-11-19T16:00:53;21.05;55.33
65584;DHT22;73032;43.592;1.458;2023-11-19T16:03:20;20.90;55.83